Time;durP1;ratioP1;P1;durP2;ratioP2;P2;SDS_P1;SDS_P2;PMS_P1;PMS_P2;Temp;Humidity;BMP_temperature;BMP_pressure;BME280_temperature;BME280_humidity;BME280_pressure;Samples;Min_cycle;Max_cycle;Signal;HPM_P1;HPM_P2
2023/03/06 00:00:38;;;;;;;24.17;19.00;;;;;;;9.59;54.63;98955.31;4992766;28;20034;-87
2023/03/06 00:03:04;;;;;;;24.80;18.20;;;;;;;9.56;55.15;98942.50;4994909;28;20065;-88
2023/03/06 00:05:30;;;;;;;22.88;18.35;;;;;;;8.98;55.10;98861.81;4994874;28;20026;-87
2023/03/06 00:07:55;;;;;;;24.45;18.98;;;;;;;9.08;54.56;98881.56;4993727;28;20038;-87
2023/03/06 00:10:27;;;;;;;22.13;18.08;;;;;;;8.71;54.20;98821.97;4994948;28;20038;-88
2023/03/06 00:12:55;;;;;;;24.52;18.85;;;;;;;9.52;54.61;98957.06;4995074;28;20030;-88
2023/03/06 00:15:21;;;;;;;21.42;18.17;;;;;;;9.44;54.53;98996.69;4994698;28;20019;-88
2023/03/06 00:17:47;;;;;;;21.33;17.05;;;;;;;9.52;54.50;98954.44;4994628;28;20426;-88
2023/03/06 00:20:13;;;;;;;22.58;18.80;;;;;;;9.52;54.35;98954.44;4993355;28;20034;-88
2023/03/06 00:22:39;;;;;;;21.00;17.90;;;;;;;8.64;54.43;98821.06;4993361;28;20511;-88
2023/03/06 00:25:06;;;;;;;20.58;16.75;;;;;;;9.40;53.85;98951.44;4994482;28;20046;-87
2023/03/06 00:27:32;;;;;;;21.63;18.17;;;;;;;9.07;54.27;98895.75;4993284;28;20023;-88
2023/03/06 00:29:59;;;;;;;24.50;18.50;;;;;;;9.10;54.15;98892.75;4994518;28;20023;-88
2023/03/06 00:32:25;;;;;;;26.17;19.15;;;;;;;9.49;53.79;98957.44;4994564;28;20054;-88
2023/03/06 00:34:52;;;;;;;26.80;19.67;;;;;;;9.48;53.55;98963.69;4993235;28;20026;-88
2023/03/06 00:37:18;;;;;;;25.35;18.92;;;;;;;9.37;54.30;98946.56;4993330;28;20069;-88
2023/03/06 00:39:44;;;;;;;22.08;17.80;;;;;;;8.49;53.98;98805.31;4994323;28;20115;-88
2023/03/06 00:42:10;;;;;;;22.27;17.10;;;;;;;9.41;52.98;98955.72;4993168;28;20040;-88
2023/03/06 00:44:36;;;;;;;22.15;16.67;;;;;;;8.87;52.92;98882.31;4994368;28;20022;-88
2023/03/06 00:47:01;;;;;;;20.50;15.68;;;;;;;8.43;52.29;98803.41;4994087;28;20022;-88
2023/03/06 00:49:27;;;;;;;19.58;15.63;;;;;;;8.91;52.09;98896.72;4992854;28;20397;-88
2023/03/06 00:51:52;;;;;;;21.35;16.35;;;;;;;8.18;52.08;98781.78;4993874;28;20175;-87
2023/03/06 00:54:18;;;;;;;17.90;14.18;;;;;;;8.84;51.54;98895.84;4992767;28;20026;-88
2023/03/06 00:56:43;;;;;;;18.88;14.93;;;;;;;8.65;51.65;98848.19;4994022;28;20019;-87
2023/03/06 00:59:10;;;;;;;20.92;15.77;;;;;;;8.68;50.98;98856.53;4992643;28;20415;-88
2023/03/06 01:01:35;;;;;;;16.65;14.15;;;;;;;8.68;50.83;98897.84;4992542;28;20026;-88
2023/03/06 01:04:01;;;;;;;16.77;13.65;;;;;;;9.24;50.09;98955.13;4993635;28;20423;-88
2023/03/06 01:06:26;;;;;;;17.00;14.07;;;;;;;8.91;50.42;98894.09;4993564;28;20045;-88
2023/03/06 01:08:51;;;;;;;16.38;13.27;;;;;;;9.16;49.92;98941.22;4992482;28;20456;-87
2023/03/06 01:11:17;;;;;;;22.67;16.85;;;;;;;8.63;50.51;98872.06;4993300;28;20101;-88
2023/03/06 01:13:43;;;;;;;20.58;15.23;;;;;;;8.68;50.04;98879.41;4993463;28;20074;-89
2023/03/06 01:16:11;;;;;;;18.50;15.52;;;;;;;9.20;50.14;98959.13;4993526;28;20479;-88
2023/03/06 01:18:37;;;;;;;17.90;14.68;;;;;;;9.11;50.22;98962.84;4992330;28;20030;-87
2023/03/06 01:21:04;;;;;;;17.13;13.35;;;;;;;9.21;49.98;98957.28;4993648;28;20179;-88
2023/03/06 01:23:29;;;;;;;19.13;14.15;;;;;;;8.41;49.85;98830.88;4993877;28;20407;-88
2023/03/06 01:25:55;;;;;;;18.98;14.73;;;;;;;8.53;49.75;98858.38;4992004;28;20049;-88
2023/03/06 01:28:21;;;;;;;19.85;15.85;;;;;;;8.84;49.92;98903.72;4992194;28;20034;-88
2023/03/06 01:30:46;;;;;;;18.15;14.13;;;;;;;8.56;49.62;98863.25;4992194;28;20030;-88
2023/03/06 01:33:11;;;;;;;17.20;13.15;;;;;;;8.77;49.50;98912.53;4993317;28;20028;-88
2023/03/06 01:35:37;;;;;;;16.27;13.73;;;;;;;8.68;49.51;98900.47;5008394;28;20021;-88
2023/03/06 01:38:03;;;;;;;19.35;14.80;;;;;;;8.17;49.59;98816.94;4992197;28;20515;-88
2023/03/06 01:40:33;;;;;;;16.90;13.68;;;;;;;9.08;48.95;98970.28;4992349;28;20018;-88
2023/03/06 01:43:08;;;;;;;18.30;13.25;;;;;;;9.07;48.42;98974.75;4992035;28;20492;-88
2023/03/06 01:45:34;;;;;;;15.48;13.23;;;;;;;9.05;48.97;98966.22;4993123;28;20034;-89
2023/03/06 01:47:59;;;;;;;15.15;11.95;;;;;;;8.63;48.47;98935.22;4992956;28;20403;-88
2023/03/06 01:50:24;;;;;;;18.85;12.93;;;;;;;8.49;48.02;98914.97;4992737;28;20019;-89
2023/03/06 01:52:54;;;;;;;15.68;12.65;;;;;;;9.01;48.21;98987.81;4991408;28;20460;-88
2023/03/06 01:55:24;;;;;;;16.30;13.05;;;;;;;8.67;48.30;98933.03;4992747;28;20024;-88
2023/03/06 01:57:56;;;;;;;15.00;12.43;;;;;;;8.68;47.96;98935.50;4992722;28;20037;-88
2023/03/06 02:00:25;;;;;;;15.57;12.60;;;;;;;8.39;47.89;98909.97;4992691;28;20033;-89
2023/03/06 02:03:05;;;;;;;13.63;12.02;;;;;;;8.96;47.29;98984.91;4992578;28;20034;-87
2023/03/06 02:05:31;;;;;;;17.75;12.70;;;;;;;8.96;47.97;98980.47;4992653;28;20014;-88
2023/03/06 02:07:57;;;;;;;17.23;13.18;;;;;;;8.27;47.62;98883.25;4992630;28;20411;-87
2023/03/06 02:10:23;;;;;;;16.08;12.32;;;;;;;8.94;47.39;98986.91;4992635;28;20026;-88
2023/03/06 02:12:50;;;;;;;17.08;12.40;;;;;;;8.42;47.48;98912.25;4992592;28;20019;-88
2023/03/06 02:15:19;;;;;;;27.40;19.05;;;;;;;8.47;47.30;98919.59;4992375;28;20093;-89
2023/03/06 02:17:47;;;;;;;22.50;15.70;;;;;;;8.15;47.12;98857.56;4992630;28;20026;-88
2023/03/06 02:20:25;;;;;;;17.35;13.10;;;;;;;8.11;46.84;98858.91;4992576;28;20022;-89
2023/03/06 02:23:16;;;;;;;19.23;12.70;;;;;;;8.89;45.51;98988.25;4992591;28;20511;-89
2023/03/06 02:25:45;;;;;;;15.57;12.90;;;;;;;8.45;46.79;98926.84;4992198;28;20108;-89
2023/03/06 02:28:14;;;;;;;13.25;11.70;;;;;;;8.03;47.52;98857.19;4992304;28;20042;-88
2023/03/06 02:30:41;;;;;;;14.15;11.60;;;;;;;8.76;47.13;98964.38;4990954;28;20034;-88
2023/03/06 02:33:09;;;;;;;15.50;11.05;;;;;;;8.94;47.02;99000.88;4992285;28;20045;-87
2023/03/06 02:35:37;;;;;;;11.02;9.57;;;;;;;8.36;46.27;98923.47;4992348;28;20041;-89
2023/03/06 02:38:13;;;;;;;14.02;10.55;;;;;;;8.83;46.08;98990.78;4992223;28;20022;-88
2023/03/06 02:40:42;;;;;;;14.43;11.02;;;;;;;8.01;45.99;98858.34;5007161;28;20022;-87
2023/03/06 02:43:09;;;;;;;15.65;11.45;;;;;;;8.79;45.88;99002.66;4992289;28;20054;-88
2023/03/06 02:45:36;;;;;;;19.77;13.75;;;;;;;8.33;45.63;98934.38;4992142;28;20505;-88
2023/03/06 02:48:02;;;;;;;13.60;10.43;;;;;;;8.62;45.84;98995.94;4992192;28;20022;-88
2023/03/06 02:50:28;;;;;;;13.77;11.43;;;;;;;7.79;45.57;98876.59;4990782;28;20026;-86
2023/03/06 02:52:54;;;;;;;12.65;11.35;;;;;;;8.50;45.51;98996.34;4992046;28;20037;-88
2023/03/06 02:55:19;;;;;;;12.45;10.23;;;;;;;7.68;45.61;98860.44;4990844;28;20025;-88
2023/03/06 02:57:44;;;;;;;15.38;11.45;;;;;;;8.55;45.79;99024.75;4992116;28;20059;-88
2023/03/06 03:00:11;;;;;;;14.38;11.20;;;;;;;7.19;45.64;98797.72;4992000;28;20027;-89
2023/03/06 03:02:37;;;;;;;14.32;10.80;;;;;;;8.49;45.70;99004.44;4990614;28;20022;-88
2023/03/06 03:05:03;;;;;;;13.40;11.45;;;;;;;7.98;45.41;98928.69;4991729;28;20026;-88
2023/03/06 03:07:29;;;;;;;14.18;10.45;;;;;;;8.43;45.69;99011.22;4991776;28;20511;-88
2023/03/06 03:09:54;;;;;;;14.68;10.68;;;;;;;7.81;45.87;98911.41;4991983;28;20026;-88
2023/03/06 03:12:21;;;;;;;13.73;11.35;;;;;;;7.51;45.94;98867.63;4991909;28;20484;-88
2023/03/06 03:14:47;;;;;;;14.75;11.40;;;;;;;7.78;45.52;98924.06;4990396;28;20022;-88
2023/03/06 03:17:12;;;;;;;15.23;12.13;;;;;;;8.22;45.79;98974.22;4991597;28;20022;-88
2023/03/06 03:19:38;;;;;;;16.25;11.60;;;;;;;7.97;45.76;98937.56;4991628;28;20415;-88
2023/03/06 03:22:04;;;;;;;13.75;10.40;;;;;;;8.36;45.49;98993.69;4990454;28;20424;-88
2023/03/06 03:24:29;;;;;;;13.45;10.63;;;;;;;7.93;46.15;98952.06;4991516;28;20046;-88
2023/03/06 03:26:55;;;;;;;13.10;11.23;;;;;;;7.82;46.08;98960.34;4991712;28;20117;-88
2023/03/06 03:29:20;;;;;;;16.70;12.60;;;;;;;7.52;45.69;98880.56;4991689;28;20027;-88
2023/03/06 03:31:46;;;;;;;14.15;11.20;;;;;;;8.40;46.00;99018.66;4991537;28;20026;-88
2023/03/06 03:34:11;;;;;;;13.55;11.57;;;;;;;8.40;46.20;99019.47;4990325;28;20084;-87
2023/03/06 03:36:37;;;;;;;17.10;12.95;;;;;;;7.97;45.92;98957.78;4994950;28;20030;-88
2023/03/06 03:39:03;;;;;;;15.07;12.93;;;;;;;8.34;46.47;99019.34;4995310;28;20101;-88
2023/03/06 03:41:29;;;;;;;13.90;12.30;;;;;;;8.33;46.30;99012.41;4995443;28;20034;-88
2023/03/06 03:43:54;;;;;;;16.67;12.43;;;;;;;8.22;45.96;99037.31;4995296;28;20030;-88
2023/03/06 03:46:20;;;;;;;20.90;15.68;;;;;;;7.37;46.45;98860.47;4994163;28;20022;-89
2023/03/06 03:48:45;;;;;;;14.82;12.00;;;;;;;7.20;46.21;98846.63;4995115;28;20025;-88
2023/03/06 03:51:15;;;;;;;15.55;12.90;;;;;;;8.30;46.47;99029.38;4994997;28;20503;-88
2023/03/06 03:53:41;;;;;;;15.48;11.85;;;;;;;8.27;45.92;99024.47;4993804;28;20052;-88
2023/03/06 03:56:07;;;;;;;13.60;11.50;;;;;;;8.25;46.24;99016.75;4995170;28;20097;-88
2023/03/06 03:58:33;;;;;;;15.80;12.25;;;;;;;7.05;46.09;98836.03;4995056;28;20551;-88
2023/03/06 04:00:58;;;;;;;16.83;11.38;;;;;;;7.74;46.43;98947.25;4993577;28;20492;-88
2023/03/06 04:03:23;;;;;;;15.70;13.00;;;;;;;7.67;46.63;98941.06;4994901;28;20026;-88
2023/03/06 04:05:52;;;;;;;13.23;11.48;;;;;;;8.04;46.41;99018.34;4994955;28;20018;-88
2023/03/06 04:08:18;;;;;;;13.50;12.07;;;;;;;7.47;46.15;98922.31;4994859;28;20071;-88
2023/03/06 04:10:43;;;;;;;15.93;11.82;;;;;;;7.48;46.55;98926.56;4993547;28;20050;-88
2023/03/06 04:13:09;;;;;;;14.32;12.38;;;;;;;7.75;46.29;98967.28;4994856;28;20065;-88
2023/03/06 04:15:34;;;;;;;14.98;11.68;;;;;;;7.27;46.30;98894.81;4994689;28;20022;-88
2023/03/06 04:18:00;;;;;;;16.00;12.55;;;;;;;8.16;46.16;99051.97;4993343;28;20029;-88
2023/03/06 04:20:25;;;;;;;15.70;12.02;;;;;;;8.21;46.59;99051.47;4994934;28;20026;-88
2023/03/06 04:22:50;;;;;;;23.77;16.00;;;;;;;7.76;46.10;98997.84;4994752;28;20032;-88
2023/03/06 04:25:16;;;;;;;18.25;13.10;;;;;;;7.26;46.38;98882.69;4994351;28;20092;-88
2023/03/06 04:27:41;;;;;;;13.65;10.98;;;;;;;7.63;46.45;98964.25;4994474;28;20512;-88
2023/03/06 04:30:07;;;;;;;14.60;11.75;;;;;;;8.27;46.55;99042.88;4993255;28;20411;-88
2023/03/06 04:32:33;;;;;;;17.10;12.40;;;;;;;6.96;46.28;98848.41;4994715;28;20462;-88
2023/03/06 04:34:58;;;;;;;19.40;11.73;;;;;;;8.30;46.18;99050.41;4994550;28;20018;-88
2023/03/06 04:37:25;;;;;;;14.13;11.82;;;;;;;8.31;45.73;99059.94;4993085;28;20026;-88
2023/03/06 04:39:51;;;;;;;15.20;12.65;;;;;;;7.80;45.84;98983.34;4994417;28;20018;-89
2023/03/06 04:42:16;;;;;;;18.80;15.10;;;;;;;8.13;46.07;99057.56;4993163;28;20026;-88
2023/03/06 04:44:42;;;;;;;19.65;15.05;;;;;;;7.80;46.13;99001.75;4994290;28;20026;-88
2023/03/06 04:47:08;;;;;;;17.70;13.10;;;;;;;7.98;45.58;99020.69;4992893;28;20459;-88
2023/03/06 04:49:33;;;;;;;20.42;15.43;;;;;;;8.10;45.98;99038.69;4994033;28;20451;-87
2023/03/06 04:51:59;;;;;;;15.18;12.73;;;;;;;7.53;45.56;98949.69;4993836;28;20026;-88
2023/03/06 04:54:24;;;;;;;17.83;13.30;;;;;;;7.53;45.69;98953.13;4994104;28;20025;-88
2023/03/06 04:56:49;;;;;;;19.10;14.45;;;;;;;6.54;45.21;98795.44;4992521;28;20491;-88
2023/03/06 04:59:15;;;;;;;17.65;13.65;;;;;;;8.32;45.40;99076.53;4992553;28;20027;-88
2023/03/06 05:01:40;;;;;;;20.45;14.70;;;;;;;7.51;45.65;98951.69;4993929;28;20052;-88
2023/03/06 05:04:06;;;;;;;18.38;13.07;;;;;;;7.64;45.56;98980.81;4993705;28;20022;-88
2023/03/06 05:06:31;;;;;;;18.30;13.07;;;;;;;7.40;45.03;98921.34;4993813;28;20030;-88
2023/03/06 05:08:57;;;;;;;18.25;14.35;;;;;;;8.15;44.56;99052.13;4993870;28;20030;-88
2023/03/06 05:11:22;;;;;;;18.60;14.65;;;;;;;8.13;45.22;99070.72;4993725;28;20513;-87
2023/03/06 05:13:48;;;;;;;18.33;13.90;;;;;;;6.80;45.21;98822.22;4993659;28;20026;-88
2023/03/06 05:16:14;;;;;;;16.35;13.05;;;;;;;8.21;45.10;99044.41;4993789;28;20018;-88
2023/03/06 05:18:40;;;;;;;18.33;13.95;;;;;;;8.22;45.30;99066.25;4998515;28;20085;-88
2023/03/06 05:21:06;;;;;;;19.23;14.85;;;;;;;8.55;44.92;99108.97;4997790;28;20018;-87
2023/03/06 05:23:35;;;;;;;18.42;12.95;;;;;;;7.57;45.07;98941.28;4993842;28;20030;-88
2023/03/06 05:26:03;;;;;;;18.92;13.05;;;;;;;7.73;44.79;98960.56;4993317;28;20105;-88
2023/03/06 05:28:29;;;;;;;17.58;12.50;;;;;;;7.88;44.62;99011.41;4993516;28;20034;-89
2023/03/06 05:30:54;;;;;;;18.33;12.05;;;;;;;7.92;44.01;99034.53;4993851;28;20026;-88
2023/03/06 05:33:20;;;;;;;16.10;11.73;;;;;;;7.94;44.30;99037.81;4992662;28;20053;-88
2023/03/06 05:35:47;;;;;;;18.40;12.18;;;;;;;8.68;44.05;99139.94;4993307;28;20021;-87
2023/03/06 05:38:13;;;;;;;17.27;12.65;;;;;;;8.27;43.73;99077.06;4993457;28;20080;-88
2023/03/06 05:40:40;;;;;;;19.15;12.25;;;;;;;8.74;44.11;99128.72;4992824;28;20084;-88
2023/03/06 05:43:07;;;;;;;14.27;11.35;;;;;;;8.67;43.48;99125.97;5000816;28;20493;-87
2023/03/06 05:45:36;;;;;;;17.15;12.85;;;;;;;8.22;43.83;99046.03;4994964;28;20018;-89
2023/03/06 05:48:03;;;;;;;18.20;12.65;;;;;;;8.28;43.50;99052.41;4991857;28;20022;-88
2023/03/06 05:50:28;;;;;;;15.40;11.82;;;;;;;8.40;43.53;99079.97;4992962;28;20080;-87
2023/03/06 05:52:54;;;;;;;17.25;11.98;;;;;;;8.64;43.48;99107.91;4992873;28;20101;-88
2023/03/06 05:55:20;;;;;;;16.05;11.90;;;;;;;8.25;43.64;99056.19;4992944;28;20448;-88
2023/03/06 05:57:46;;;;;;;16.88;12.57;;;;;;;8.78;43.85;99120.28;4992585;28;20050;-88
2023/03/06 06:00:13;;;;;;;17.13;12.95;;;;;;;7.29;43.83;98919.09;4991370;28;20026;-88
2023/03/06 06:02:40;;;;;;;18.50;11.60;;;;;;;8.88;43.43;99147.19;4992519;28;20029;-88
2023/03/06 06:05:06;;;;;;;20.63;12.00;;;;;;;8.33;43.25;99062.41;4992886;28;20028;-88
2023/03/06 06:07:32;;;;;;;21.73;12.63;;;;;;;8.09;43.46;99029.16;4992963;28;20050;-88
2023/03/06 06:09:57;;;;;;;18.45;11.57;;;;;;;8.75;43.36;99125.09;4992763;28;20116;-87
2023/03/06 06:12:23;;;;;;;16.13;11.75;;;;;;;8.62;43.37;99101.19;4992833;28;20462;-88
2023/03/06 06:14:48;;;;;;;15.20;11.23;;;;;;;8.55;43.61;99109.78;4992733;28;20030;-88
2023/03/06 06:17:15;;;;;;;17.35;12.23;;;;;;;8.97;43.13;99170.84;4992613;28;20025;-88
2023/03/06 06:19:41;;;;;;;21.05;12.70;;;;;;;8.39;43.40;99082.78;4992498;28;20076;-87
2023/03/06 06:22:07;;;;;;;20.42;12.15;;;;;;;8.51;42.74;99134.81;4992491;28;20022;-88
2023/03/06 06:24:32;;;;;;;17.35;12.32;;;;;;;8.35;43.22;99118.31;4990918;28;20046;-86
2023/03/06 06:26:59;;;;;;;16.90;11.70;;;;;;;8.72;43.39;99172.81;4991049;28;20028;-88
2023/03/06 06:29:26;;;;;;;14.68;11.07;;;;;;;8.73;43.14;99192.88;4990992;28;20026;-88
2023/03/06 06:31:52;;;;;;;15.30;11.27;;;;;;;8.68;43.37;99209.19;4991017;28;20026;-88
2023/03/06 06:34:18;;;;;;;17.42;12.95;;;;;;;8.70;43.13;99194.06;4992532;28;20026;-86
2023/03/06 06:36:43;;;;;;;13.25;11.57;;;;;;;7.75;43.57;99037.41;4989610;28;20057;-85
2023/03/06 06:39:12;;;;;;;18.08;11.80;;;;;;;8.77;43.51;99200.25;4987466;28;20064;-84
2023/03/06 06:41:37;;;;;;;16.15;12.25;;;;;;;8.02;43.73;99071.09;4989608;28;20105;-86
2023/03/06 06:44:09;;;;;;;15.60;10.88;;;;;;;8.32;43.36;99123.88;4988863;28;20105;-86
2023/03/06 06:46:35;;;;;;;16.60;13.30;;;;;;;8.62;43.30;99173.06;4991039;28;20029;-85
2023/03/06 06:49:01;;;;;;;14.43;11.50;;;;;;;8.84;43.75;99198.56;5000183;28;20507;-85
2023/03/06 06:51:31;;;;;;;15.60;11.60;;;;;;;8.89;43.78;99200.66;4996572;28;20030;-85
2023/03/06 06:53:57;;;;;;;18.48;12.60;;;;;;;8.97;43.81;99219.06;5019539;28;20027;-85
2023/03/06 06:56:22;;;;;;;19.88;13.27;;;;;;;8.63;43.21;99158.91;5000701;28;20080;-85
2023/03/06 06:58:54;;;;;;;14.00;12.10;;;;;;;8.41;43.26;99121.06;4990068;28;20033;-85
2023/03/06 07:01:19;;;;;;;14.45;11.65;;;;;;;9.11;43.79;99233.28;4991698;28;20462;-85
2023/03/06 07:03:44;;;;;;;15.07;12.35;;;;;;;9.19;43.57;99249.84;4989658;28;20030;-85
2023/03/06 07:06:10;;;;;;;15.45;11.88;;;;;;;9.01;43.75;99191.38;4989665;28;20109;-85
2023/03/06 07:08:35;;;;;;;15.70;11.85;;;;;;;9.22;43.86;99240.78;4991492;28;20026;-86
2023/03/06 07:11:11;;;;;;;16.70;11.82;;;;;;;8.89;43.32;99161.19;4990053;28;20034;-86
2023/03/06 07:13:37;;;;;;;15.38;11.90;;;;;;;8.80;43.62;99149.06;4977291;28;20022;-86
2023/03/06 07:16:03;;;;;;;15.20;12.80;;;;;;;8.61;43.63;99113.53;4976048;28;20018;-86
2023/03/06 07:18:28;;;;;;;15.10;12.10;;;;;;;8.97;43.89;99176.94;4989370;28;20483;-87
2023/03/06 07:20:54;;;;;;;18.17;13.00;;;;;;;9.42;43.59;99235.84;4991158;28;20034;-88
2023/03/06 07:23:20;;;;;;;15.63;12.40;;;;;;;8.66;43.75;99107.72;5007330;28;20022;-88
2023/03/06 07:25:45;;;;;;;14.95;12.02;;;;;;;9.49;43.97;99247.28;4993388;28;20423;-88
2023/03/06 07:28:11;;;;;;;14.93;11.57;;;;;;;9.28;43.65;99213.72;4995309;28;20022;-88
2023/03/06 07:30:40;;;;;;;17.38;11.80;;;;;;;9.04;43.90;99172.59;5007903;28;20488;-88
2023/03/06 07:33:05;;;;;;;15.95;12.68;;;;;;;8.77;43.59;99110.75;4994672;28;20419;-87
2023/03/06 07:35:30;;;;;;;14.85;12.02;;;;;;;8.94;43.21;99108.03;4994912;28;20033;-87
2023/03/06 07:37:56;;;;;;;15.98;12.15;;;;;;;9.75;43.81;99233.75;4993583;28;20030;-88
2023/03/06 07:40:22;;;;;;;18.70;13.70;;;;;;;9.64;43.63;99210.44;4993692;28;20046;-88
2023/03/06 07:42:48;;;;;;;17.00;12.45;;;;;;;9.07;43.30;99131.94;4994680;28;20026;-88
2023/03/06 07:45:14;;;;;;;17.52;12.27;;;;;;;9.53;43.24;99178.25;4992629;28;20422;-87
2023/03/06 07:47:39;;;;;;;16.83;12.63;;;;;;;9.67;43.33;99196.91;4992429;28;20022;-88
2023/03/06 07:50:06;;;;;;;16.25;12.80;;;;;;;9.36;43.11;99142.50;4994873;28;20022;-89
2023/03/06 07:52:32;;;;;;;15.98;12.18;;;;;;;9.93;42.98;99234.22;4995235;28;20471;-88
2023/03/06 07:54:58;;;;;;;16.33;12.30;;;;;;;9.58;42.70;99161.88;4994637;28;20479;-88
2023/03/06 07:57:24;;;;;;;15.48;11.82;;;;;;;10.07;42.70;99222.03;4994070;28;20024;-89
2023/03/06 07:59:49;;;;;;;18.38;12.82;;;;;;;9.50;43.02;99127.72;4995246;28;20357;-87
2023/03/06 08:02:14;;;;;;;13.57;11.45;;;;;;;10.37;42.87;99252.69;4994800;28;20035;-88
2023/03/06 08:04:40;;;;;;;15.80;12.00;;;;;;;9.83;42.75;99175.66;4993283;28;20026;-89
2023/03/06 08:07:05;;;;;;;16.10;12.18;;;;;;;10.04;43.27;99198.66;4992407;28;20118;-87
2023/03/06 08:09:31;;;;;;;21.83;16.17;;;;;;;10.30;42.81;99227.22;4999202;28;20106;-88
2023/03/06 08:11:56;;;;;;;18.92;14.40;;;;;;;10.10;43.31;99185.53;4992004;28;20033;-87
2023/03/06 08:14:21;;;;;;;15.57;12.95;;;;;;;10.08;43.16;99170.91;4990313;28;20030;-87
2023/03/06 08:16:49;;;;;;;13.32;11.02;;;;;;;9.88;43.23;99141.66;4991767;28;20105;-87
2023/03/06 08:19:14;;;;;;;17.30;13.70;;;;;;;10.60;43.12;99228.00;4998618;28;20049;-86
2023/03/06 08:21:40;;;;;;;14.45;11.30;;;;;;;10.38;43.35;99184.88;5002819;28;20018;-86
2023/03/06 08:24:06;;;;;;;15.38;11.60;;;;;;;10.24;43.07;99144.34;4993626;28;20031;-87
2023/03/06 08:26:32;;;;;;;14.00;11.73;;;;;;;10.94;43.16;99241.38;4994272;28;20077;-88
2023/03/06 08:29:00;;;;;;;16.95;14.20;;;;;;;10.17;43.03;99112.56;4990376;28;20399;-88
2023/03/06 08:31:37;;;;;;;17.55;13.02;;;;;;;11.04;42.56;99249.00;4992375;28;20108;-87
2023/03/06 08:34:06;;;;;;;16.50;12.88;;;;;;;10.72;43.15;99189.56;4994020;28;20040;-87
2023/03/06 08:36:31;;;;;;;16.58;11.80;;;;;;;11.18;42.93;99274.56;4994280;28;20011;-87
2023/03/06 08:38:57;;;;;;;14.93;11.73;;;;;;;11.26;43.03;99253.31;4994435;28;20033;-88
2023/03/06 08:41:24;;;;;;;14.60;12.18;;;;;;;11.32;43.27;99254.38;4993295;28;20019;-87
2023/03/06 08:43:49;;;;;;;16.40;13.00;;;;;;;10.90;43.64;99170.63;4995021;28;20530;-87
2023/03/06 08:46:15;;;;;;;16.63;13.98;;;;;;;10.54;43.63;99104.69;5008855;28;20081;-88
2023/03/06 08:48:41;;;;;;;18.17;14.27;;;;;;;10.56;43.10;99106.13;5000347;28;20096;-87
2023/03/06 08:51:09;;;;;;;16.90;12.00;;;;;;;11.66;43.37;99246.53;4989298;28;20022;-86
2023/03/06 08:53:36;;;;;;;15.90;12.98;;;;;;;11.74;43.60;99250.84;4986869;28;20030;-87
2023/03/06 08:56:02;;;;;;;17.20;13.95;;;;;;;11.34;42.97;99181.00;4993178;28;20057;-88
2023/03/06 08:58:27;;;;;;;17.17;12.65;;;;;;;11.49;43.01;99186.19;4992212;28;20026;-87
2023/03/06 09:00:54;;;;;;;15.98;12.05;;;;;;;10.61;42.85;99035.09;4991201;28;20034;-87
2023/03/06 09:03:19;;;;;;;16.30;13.00;;;;;;;11.55;43.28;99188.06;4991534;28;20018;-87
2023/03/06 09:05:45;;;;;;;15.18;12.43;;;;;;;11.22;43.61;99112.00;4993162;28;20088;-87
2023/03/06 09:08:10;;;;;;;18.20;14.85;;;;;;;11.56;43.12;99150.84;4992125;28;20061;-87
2023/03/06 09:10:36;;;;;;;16.45;13.23;;;;;;;12.23;43.54;99236.75;4992585;28;20577;-86
2023/03/06 09:13:01;;;;;;;17.35;13.60;;;;;;;11.83;43.19;99162.44;4992501;28;20567;-87
2023/03/06 09:15:27;;;;;;;18.58;14.57;;;;;;;12.22;42.97;99220.06;4991868;28;20527;-86
2023/03/06 09:17:53;;;;;;;16.50;14.25;;;;;;;11.95;43.18;99157.44;4992066;28;20449;-86
2023/03/06 09:20:18;;;;;;;15.32;13.25;;;;;;;12.42;43.08;99206.91;4991699;28;20032;-86
2023/03/06 09:22:47;;;;;;;15.70;13.27;;;;;;;12.60;42.81;99235.47;4991055;28;20038;-86
2023/03/06 09:25:13;;;;;;;21.13;14.63;;;;;;;12.11;42.91;99132.47;4991475;28;20058;-86
2023/03/06 09:27:39;;;;;;;18.92;13.30;;;;;;;12.82;42.58;99228.25;4991744;28;20030;-86
2023/03/06 09:30:07;;;;;;;15.55;13.30;;;;;;;12.65;42.95;99188.88;4991829;28;20037;-86
2023/03/06 09:32:33;;;;;;;16.65;13.27;;;;;;;12.38;42.07;99142.94;4991635;28;21234;-86
2023/03/06 09:34:59;;;;;;;18.13;13.95;;;;;;;12.49;42.14;99133.59;4992743;28;20041;-86
2023/03/06 09:37:25;;;;;;;17.00;14.63;;;;;;;12.61;42.03;99134.66;4994203;28;20022;-86
2023/03/06 09:39:50;;;;;;;21.33;13.93;;;;;;;12.67;42.13;99123.28;4990341;28;20092;-86
2023/03/06 09:42:19;;;;;;;19.48;14.05;;;;;;;13.11;42.17;99177.53;4991380;28;20101;-86
2023/03/06 09:44:50;;;;;;;20.58;15.23;;;;;;;12.64;41.84;99104.31;4983549;28;20415;-86
2023/03/06 09:47:25;;;;;;;16.00;13.03;;;;;;;13.57;41.83;99219.19;4986796;28;20022;-86
2023/03/06 09:50:09;;;;;;;14.57;12.40;;;;;;;13.71;41.17;99214.69;4988032;28;20443;-86
2023/03/06 09:52:57;;;;;;;15.68;11.88;;;;;;;13.80;41.03;99218.75;4984328;28;20026;-85
2023/03/06 09:55:26;;;;;;;16.98;13.95;;;;;;;13.43;41.63;99141.47;4970314;28;20432;-86
2023/03/06 09:57:51;;;;;;;17.90;13.50;;;;;;;13.94;41.13;99207.09;4972097;28;20404;-86
2023/03/06 10:00:25;;;;;;;18.17;12.80;;;;;;;14.01;40.94;99215.84;4984005;28;20038;-86
2023/03/06 10:03:09;;;;;;;17.45;12.60;;;;;;;14.05;40.91;99206.44;4986625;28;20031;-86
2023/03/06 10:05:40;;;;;;;14.23;12.43;;;;;;;13.83;40.57;99160.78;4988010;28;20090;-86
2023/03/06 10:08:15;;;;;;;15.32;12.05;;;;;;;13.59;40.24;99113.69;4992313;28;20046;-86
2023/03/06 10:11:00;;;;;;;23.88;17.52;;;;;;;14.20;40.53;99169.06;4989921;28;20085;-86
2023/03/06 10:13:42;;;;;;;16.85;12.98;;;;;;;14.61;40.21;99208.53;4987696;28;20022;-85
2023/03/06 10:16:19;;;;;;;20.50;17.75;;;;;;;14.20;39.29;99119.44;4990906;28;20022;-86
2023/03/06 10:18:45;;;;;;;18.80;12.88;;;;;;;14.17;39.47;99100.44;4990092;28;20038;-85
2023/03/06 10:21:44;;;;;;;18.10;13.95;;;;;;;14.60;39.55;99136.00;5005361;28;20022;-85
2023/03/06 10:24:15;;;;;;;19.70;16.20;;;;;;;15.16;39.38;99193.69;5001986;28;20036;-85
2023/03/06 10:26:53;;;;;;;21.42;16.38;;;;;;;15.07;39.16;99156.97;4982411;28;20077;-86
2023/03/06 10:29:44;;;;;;;15.43;11.43;;;;;;;15.53;38.21;99196.47;4981145;28;20034;-85
2023/03/06 10:32:26;;;;;;;17.02;13.90;;;;;;;15.67;38.64;99189.25;4987866;28;20113;-85
2023/03/06 10:34:52;;;;;;;16.63;11.93;;;;;;;15.48;37.91;99135.13;4988646;28;20121;-85
2023/03/06 10:37:20;;;;;;;15.43;13.48;;;;;;;15.37;37.76;99126.00;4988296;28;20541;-85
2023/03/06 10:39:59;;;;;;;16.48;12.57;;;;;;;15.27;37.81;99057.34;4987937;28;20109;-86
2023/03/06 10:42:24;;;;;;;13.60;11.60;;;;;;;16.06;37.47;99172.03;4989372;28;20026;-85
2023/03/06 10:45:06;;;;;;;12.98;11.25;;;;;;;15.80;36.60;99125.22;4987609;28;20049;-86
2023/03/06 10:47:34;;;;;;;13.25;11.15;;;;;;;16.22;36.81;99184.75;4991532;28;20031;-86
2023/03/06 10:50:01;;;;;;;13.10;11.45;;;;;;;15.96;36.38;99123.81;4991714;28;20044;-84
2023/03/06 10:52:33;;;;;;;15.07;12.15;;;;;;;16.16;35.62;99127.03;4988598;28;20030;-85
2023/03/06 10:55:23;;;;;;;14.95;11.70;;;;;;;16.49;35.97;99154.09;4984961;28;20056;-85
2023/03/06 10:57:49;;;;;;;12.85;10.05;;;;;;;15.31;35.87;98993.91;4988345;28;20511;-86
2023/03/06 11:00:35;;;;;;;13.40;11.95;;;;;;;16.66;35.25;99156.16;4985849;28;20046;-85
2023/03/06 11:03:05;;;;;;;16.65;12.80;;;;;;;16.76;34.62;99157.22;4986342;28;20466;-85
2023/03/06 11:05:30;;;;;;;13.15;11.73;;;;;;;16.27;35.28;99074.84;4989286;28;20597;-85
2023/03/06 11:07:58;;;;;;;14.35;11.60;;;;;;;15.89;35.60;99074.13;4989069;28;20062;-85
2023/03/06 11:10:25;;;;;;;13.50;10.48;;;;;;;16.09;36.10;99120.97;4987257;28;20414;-84
2023/03/06 11:13:01;;;;;;;11.88;10.60;;;;;;;16.32;35.42;99145.06;4988143;28;20022;-85
2023/03/06 11:15:27;;;;;;;14.73;12.32;;;;;;;15.91;36.16;99057.91;4990933;28;20112;-86
2023/03/06 11:17:55;;;;;;;15.18;13.57;;;;;;;16.58;35.92;99143.13;4989074;28;20022;-85
2023/03/06 11:20:41;;;;;;;16.45;12.57;;;;;;;16.62;35.54;99136.28;4990637;28;20341;-85
2023/03/06 11:23:15;;;;;;;15.32;12.45;;;;;;;16.71;35.73;99141.09;4984800;28;20495;-85